sensor_id;sensor_type;location;lat;lon;timestamp;pressure;altitude;pressure_sealevel;temperature
5571;BMP180;2808;51.240;6.794;2024-02-04T00:00:13;101877.00;;;10.10
5571;BMP180;2808;51.240;6.794;2024-02-04T00:02:40;101881.00;;;10.10
5571;BMP180;2808;51.240;6.794;2024-02-04T00:05:11;101880.00;;;10.10
5571;BMP180;2808;51.240;6.794;2024-02-04T00:07:44;101885.00;;;10.10
5571;BMP180;2808;51.240;6.794;2024-02-04T00:10:15;101896.00;;;10.10
5571;BMP180;2808;51.240;6.794;2024-02-04T00:12:45;101887.00;;;10.10
5571;BMP180;2808;51.240;6.794;2024-02-04T00:15:18;101883.00;;;10.10
5571;BMP180;2808;51.240;6.794;2024-02-04T00:17:46;101870.00;;;10.10
5571;BMP180;2808;51.240;6.794;2024-02-04T00:20:15;101869.00;;;10.10
5571;BMP180;2808;51.240;6.794;2024-02-04T00:22:45;101854.00;;;10.10
5571;BMP180;2808;51.240;6.794;2024-02-04T00:25:43;101857.00;;;10.10
5571;BMP180;2808;51.240;6.794;2024-02-04T00:28:32;101854.00;;;10.10
5571;BMP180;2808;51.240;6.794;2024-02-04T00:31:16;101855.00;;;10.10
5571;BMP180;2808;51.240;6.794;2024-02-04T00:33:50;101844.00;;;10.10
5571;BMP180;2808;51.240;6.794;2024-02-04T00:36:24;101852.00;;;10.10
5571;BMP180;2808;51.240;6.794;2024-02-04T00:38:56;101857.00;;;10.10
5571;BMP180;2808;51.240;6.794;2024-02-04T00:41:27;101852.00;;;10.10
5571;BMP180;2808;51.240;6.794;2024-02-04T00:43:55;101853.00;;;10.10
5571;BMP180;2808;51.240;6.794;2024-02-04T00:46:23;101855.00;;;10.10
5571;BMP180;2808;51.240;6.794;2024-02-04T00:48:54;101859.00;;;10.10
5571;BMP180;2808;51.240;6.794;2024-02-04T00:55:27;101857.00;;;10.00
5571;BMP180;2808;51.240;6.794;2024-02-04T01:02:04;101856.00;;;10.00
5571;BMP180;2808;51.240;6.794;2024-02-04T01:04:32;101849.00;;;10.00
5571;BMP180;2808;51.240;6.794;2024-02-04T01:07:05;101858.00;;;10.00
5571;BMP180;2808;51.240;6.794;2024-02-04T01:09:35;101854.00;;;10.00
5571;BMP180;2808;51.240;6.794;2024-02-04T01:12:07;101854.00;;;10.00
5571;BMP180;2808;51.240;6.794;2024-02-04T01:14:39;101843.00;;;10.00
5571;BMP180;2808;51.240;6.794;2024-02-04T01:17:17;101852.00;;;10.00
5571;BMP180;2808;51.240;6.794;2024-02-04T01:19:52;101856.00;;;10.00
5571;BMP180;2808;51.240;6.794;2024-02-04T01:22:28;101845.00;;;10.00
5571;BMP180;2808;51.240;6.794;2024-02-04T01:25:00;101844.00;;;10.00
5571;BMP180;2808;51.240;6.794;2024-02-04T01:27:32;101845.00;;;10.00
5571;BMP180;2808;51.240;6.794;2024-02-04T01:30:05;101850.00;;;10.00
5571;BMP180;2808;51.240;6.794;2024-02-04T01:32:41;101839.00;;;10.00
5571;BMP180;2808;51.240;6.794;2024-02-04T01:35:09;101851.00;;;10.00
5571;BMP180;2808;51.240;6.794;2024-02-04T01:37:36;101863.00;;;10.00
5571;BMP180;2808;51.240;6.794;2024-02-04T01:40:07;101862.00;;;10.00
5571;BMP180;2808;51.240;6.794;2024-02-04T01:42:37;101856.00;;;10.00
5571;BMP180;2808;51.240;6.794;2024-02-04T01:45:13;101860.00;;;10.00
5571;BMP180;2808;51.240;6.794;2024-02-04T01:47:42;101851.00;;;10.00
5571;BMP180;2808;51.240;6.794;2024-02-04T01:50:13;101850.00;;;10.00
5571;BMP180;2808;51.240;6.794;2024-02-04T01:52:42;101846.00;;;10.10
5571;BMP180;2808;51.240;6.794;2024-02-04T01:55:11;101852.00;;;10.00
5571;BMP180;2808;51.240;6.794;2024-02-04T01:57:39;101849.00;;;10.00
5571;BMP180;2808;51.240;6.794;2024-02-04T02:00:09;101849.00;;;10.10
5571;BMP180;2808;51.240;6.794;2024-02-04T02:02:42;101848.00;;;10.10
5571;BMP180;2808;51.240;6.794;2024-02-04T02:05:13;101847.00;;;10.10
5571;BMP180;2808;51.240;6.794;2024-02-04T02:07:43;101841.00;;;10.10
5571;BMP180;2808;51.240;6.794;2024-02-04T02:10:12;101836.00;;;10.10
5571;BMP180;2808;51.240;6.794;2024-02-04T02:12:43;101840.00;;;10.10
5571;BMP180;2808;51.240;6.794;2024-02-04T02:15:20;101838.00;;;10.10
5571;BMP180;2808;51.240;6.794;2024-02-04T02:17:53;101836.00;;;10.10
5571;BMP180;2808;51.240;6.794;2024-02-04T02:20:29;101838.00;;;10.10
5571;BMP180;2808;51.240;6.794;2024-02-04T02:23:11;101826.00;;;10.10
5571;BMP180;2808;51.240;6.794;2024-02-04T02:25:41;101833.00;;;10.10
5571;BMP180;2808;51.240;6.794;2024-02-04T02:28:12;101832.00;;;10.10
5571;BMP180;2808;51.240;6.794;2024-02-04T02:30:40;101837.00;;;10.10
5571;BMP180;2808;51.240;6.794;2024-02-04T02:33:09;101832.00;;;10.10
5571;BMP180;2808;51.240;6.794;2024-02-04T02:35:37;101830.00;;;10.20
5571;BMP180;2808;51.240;6.794;2024-02-04T02:38:10;101831.00;;;10.20
5571;BMP180;2808;51.240;6.794;2024-02-04T02:40:45;101837.00;;;10.20
5571;BMP180;2808;51.240;6.794;2024-02-04T02:43:13;101834.00;;;10.20
5571;BMP180;2808;51.240;6.794;2024-02-04T02:45:42;101832.00;;;10.20
5571;BMP180;2808;51.240;6.794;2024-02-04T02:48:10;101835.00;;;10.20
5571;BMP180;2808;51.240;6.794;2024-02-04T02:50:38;101843.00;;;10.20
5571;BMP180;2808;51.240;6.794;2024-02-04T02:53:06;101840.00;;;10.20
5571;BMP180;2808;51.240;6.794;2024-02-04T02:55:34;101838.00;;;10.20
5571;BMP180;2808;51.240;6.794;2024-02-04T02:58:03;101834.00;;;10.20
5571;BMP180;2808;51.240;6.794;2024-02-04T03:00:30;101822.00;;;10.20
5571;BMP180;2808;51.240;6.794;2024-02-04T03:02:58;101832.00;;;10.20
5571;BMP180;2808;51.240;6.794;2024-02-04T03:05:25;101817.00;;;10.20
5571;BMP180;2808;51.240;6.794;2024-02-04T03:07:52;101817.00;;;10.20
5571;BMP180;2808;51.240;6.794;2024-02-04T03:10:20;101825.00;;;10.20
5571;BMP180;2808;51.240;6.794;2024-02-04T03:12:48;101822.00;;;10.20
5571;BMP180;2808;51.240;6.794;2024-02-04T03:15:17;101826.00;;;10.20
5571;BMP180;2808;51.240;6.794;2024-02-04T03:17:47;101830.00;;;10.20
5571;BMP180;2808;51.240;6.794;2024-02-04T03:20:15;101821.00;;;10.20
5571;BMP180;2808;51.240;6.794;2024-02-04T03:22:42;101831.00;;;10.20
5571;BMP180;2808;51.240;6.794;2024-02-04T03:25:14;101832.00;;;10.20
5571;BMP180;2808;51.240;6.794;2024-02-04T03:27:44;101826.00;;;10.30
5571;BMP180;2808;51.240;6.794;2024-02-04T03:30:12;101825.00;;;10.20
5571;BMP180;2808;51.240;6.794;2024-02-04T03:32:41;101819.00;;;10.30
5571;BMP180;2808;51.240;6.794;2024-02-04T03:35:08;101818.00;;;10.20
5571;BMP180;2808;51.240;6.794;2024-02-04T03:37:39;101816.00;;;10.20
5571;BMP180;2808;51.240;6.794;2024-02-04T03:40:07;101804.00;;;10.20
5571;BMP180;2808;51.240;6.794;2024-02-04T03:42:36;101818.00;;;10.20
5571;BMP180;2808;51.240;6.794;2024-02-04T03:45:05;101811.00;;;10.30
5571;BMP180;2808;51.240;6.794;2024-02-04T03:47:34;101814.00;;;10.20
5571;BMP180;2808;51.240;6.794;2024-02-04T03:50:04;101804.00;;;10.30
5571;BMP180;2808;51.240;6.794;2024-02-04T03:52:33;101806.00;;;10.20
5571;BMP180;2808;51.240;6.794;2024-02-04T03:58:25;101817.00;;;10.30
5571;BMP180;2808;51.240;6.794;2024-02-04T04:00:56;101804.00;;;10.30
5571;BMP180;2808;51.240;6.794;2024-02-04T04:03:24;101823.00;;;10.30
5571;BMP180;2808;51.240;6.794;2024-02-04T04:05:54;101805.00;;;10.30
5571;BMP180;2808;51.240;6.794;2024-02-04T04:08:21;101801.00;;;10.30
5571;BMP180;2808;51.240;6.794;2024-02-04T04:10:49;101813.00;;;10.30
5571;BMP180;2808;51.240;6.794;2024-02-04T04:13:19;101821.00;;;10.30
5571;BMP180;2808;51.240;6.794;2024-02-04T04:15:50;101807.00;;;10.30
5571;BMP180;2808;51.240;6.794;2024-02-04T04:18:18;101795.00;;;10.30
5571;BMP180;2808;51.240;6.794;2024-02-04T04:20:47;101818.00;;;10.30
5571;BMP180;2808;51.240;6.794;2024-02-04T04:23:16;101805.00;;;10.30
5571;BMP180;2808;51.240;6.794;2024-02-04T04:25:43;101816.00;;;10.30
5571;BMP180;2808;51.240;6.794;2024-02-04T04:28:13;101823.00;;;10.30
5571;BMP180;2808;51.240;6.794;2024-02-04T04:30:41;101813.00;;;10.30
5571;BMP180;2808;51.240;6.794;2024-02-04T04:33:11;101810.00;;;10.30
5571;BMP180;2808;51.240;6.794;2024-02-04T04:35:39;101830.00;;;10.40
5571;BMP180;2808;51.240;6.794;2024-02-04T04:38:06;101842.00;;;10.30
5571;BMP180;2808;51.240;6.794;2024-02-04T04:40:35;101843.00;;;10.30
5571;BMP180;2808;51.240;6.794;2024-02-04T04:43:03;101837.00;;;10.30
5571;BMP180;2808;51.240;6.794;2024-02-04T04:45:31;101843.00;;;10.30
5571;BMP180;2808;51.240;6.794;2024-02-04T04:47:58;101841.00;;;10.30
5571;BMP180;2808;51.240;6.794;2024-02-04T04:50:26;101841.00;;;10.30
5571;BMP180;2808;51.240;6.794;2024-02-04T04:52:56;101839.00;;;10.30
5571;BMP180;2808;51.240;6.794;2024-02-04T04:55:24;101833.00;;;10.30
5571;BMP180;2808;51.240;6.794;2024-02-04T04:58:06;101809.00;;;10.30
5571;BMP180;2808;51.240;6.794;2024-02-04T05:00:36;101811.00;;;10.30
5571;BMP180;2808;51.240;6.794;2024-02-04T05:03:07;101815.00;;;10.30
5571;BMP180;2808;51.240;6.794;2024-02-04T05:05:34;101815.00;;;10.30
5571;BMP180;2808;51.240;6.794;2024-02-04T05:08:03;101813.00;;;10.30
5571;BMP180;2808;51.240;6.794;2024-02-04T05:10:31;101823.00;;;10.30
5571;BMP180;2808;51.240;6.794;2024-02-04T05:13:00;101808.00;;;10.30
5571;BMP180;2808;51.240;6.794;2024-02-04T05:15:29;101813.00;;;10.30
5571;BMP180;2808;51.240;6.794;2024-02-04T05:18:14;101816.00;;;10.30
5571;BMP180;2808;51.240;6.794;2024-02-04T05:20:42;101806.00;;;10.40
5571;BMP180;2808;51.240;6.794;2024-02-04T05:23:15;101799.00;;;10.40
5571;BMP180;2808;51.240;6.794;2024-02-04T05:25:46;101808.00;;;10.40
5571;BMP180;2808;51.240;6.794;2024-02-04T05:28:25;101819.00;;;10.40
5571;BMP180;2808;51.240;6.794;2024-02-04T05:31:01;101820.00;;;10.30
5571;BMP180;2808;51.240;6.794;2024-02-04T05:33:29;101815.00;;;10.40
5571;BMP180;2808;51.240;6.794;2024-02-04T05:36:08;101812.00;;;10.40
5571;BMP180;2808;51.240;6.794;2024-02-04T05:38:35;101804.00;;;10.40
5571;BMP180;2808;51.240;6.794;2024-02-04T05:41:02;101794.00;;;10.40
5571;BMP180;2808;51.240;6.794;2024-02-04T05:43:32;101789.00;;;10.40
5571;BMP180;2808;51.240;6.794;2024-02-04T05:45:59;101787.00;;;10.40
5571;BMP180;2808;51.240;6.794;2024-02-04T05:48:27;101784.00;;;10.40
5571;BMP180;2808;51.240;6.794;2024-02-04T05:50:55;101789.00;;;10.40
5571;BMP180;2808;51.240;6.794;2024-02-04T05:53:23;101777.00;;;10.30
5571;BMP180;2808;51.240;6.794;2024-02-04T05:55:58;101781.00;;;10.40
5571;BMP180;2808;51.240;6.794;2024-02-04T05:58:25;101768.00;;;10.40
5571;BMP180;2808;51.240;6.794;2024-02-04T06:00:54;101772.00;;;10.40
5571;BMP180;2808;51.240;6.794;2024-02-04T06:03:21;101766.00;;;10.40
5571;BMP180;2808;51.240;6.794;2024-02-04T06:05:49;101771.00;;;10.40
5571;BMP180;2808;51.240;6.794;2024-02-04T06:08:16;101780.00;;;10.40
5571;BMP180;2808;51.240;6.794;2024-02-04T06:10:44;101761.00;;;10.40
5571;BMP180;2808;51.240;6.794;2024-02-04T06:13:11;101766.00;;;10.40
5571;BMP180;2808;51.240;6.794;2024-02-04T06:15:39;101763.00;;;10.30
5571;BMP180;2808;51.240;6.794;2024-02-04T06:18:08;101771.00;;;10.30
5571;BMP180;2808;51.240;6.794;2024-02-04T06:20:35;101769.00;;;10.40
5571;BMP180;2808;51.240;6.794;2024-02-04T06:23:08;101774.00;;;10.40
5571;BMP180;2808;51.240;6.794;2024-02-04T06:25:36;101775.00;;;10.40
5571;BMP180;2808;51.240;6.794;2024-02-04T06:28:04;101763.00;;;10.40
5571;BMP180;2808;51.240;6.794;2024-02-04T06:30:33;101760.00;;;10.40
5571;BMP180;2808;51.240;6.794;2024-02-04T06:33:00;101764.00;;;10.40
5571;BMP180;2808;51.240;6.794;2024-02-04T06:35:31;101760.00;;;10.40
5571;BMP180;2808;51.240;6.794;2024-02-04T06:37:58;101752.00;;;10.40
5571;BMP180;2808;51.240;6.794;2024-02-04T06:40:26;101751.00;;;10.30
5571;BMP180;2808;51.240;6.794;2024-02-04T06:42:58;101739.00;;;10.30
5571;BMP180;2808;51.240;6.794;2024-02-04T06:45:28;101745.00;;;10.30
5571;BMP180;2808;51.240;6.794;2024-02-04T06:47:58;101757.00;;;10.30
5571;BMP180;2808;51.240;6.794;2024-02-04T06:50:37;101762.00;;;10.30
5571;BMP180;2808;51.240;6.794;2024-02-04T06:53:04;101758.00;;;10.30
5571;BMP180;2808;51.240;6.794;2024-02-04T06:55:32;101761.00;;;10.30
5571;BMP180;2808;51.240;6.794;2024-02-04T06:58:03;101751.00;;;10.30
5571;BMP180;2808;51.240;6.794;2024-02-04T07:00:30;101737.00;;;10.30
5571;BMP180;2808;51.240;6.794;2024-02-04T07:02:58;101729.00;;;10.30
5571;BMP180;2808;51.240;6.794;2024-02-04T07:05:25;101739.00;;;10.30
5571;BMP180;2808;51.240;6.794;2024-02-04T07:07:54;101727.00;;;10.30
5571;BMP180;2808;51.240;6.794;2024-02-04T07:10:26;101739.00;;;10.30
5571;BMP180;2808;51.240;6.794;2024-02-04T07:12:59;101739.00;;;10.30
5571;BMP180;2808;51.240;6.794;2024-02-04T07:15:28;101749.00;;;10.30
5571;BMP180;2808;51.240;6.794;2024-02-04T07:18:01;101732.00;;;10.30
5571;BMP180;2808;51.240;6.794;2024-02-04T07:20:30;101738.00;;;10.30
5571;BMP180;2808;51.240;6.794;2024-02-04T07:23:03;101737.00;;;10.30
5571;BMP180;2808;51.240;6.794;2024-02-04T07:25:38;101753.00;;;10.30
5571;BMP180;2808;51.240;6.794;2024-02-04T07:28:07;101757.00;;;10.30
5571;BMP180;2808;51.240;6.794;2024-02-04T07:30:39;101765.00;;;10.30
5571;BMP180;2808;51.240;6.794;2024-02-04T07:33:16;101750.00;;;10.30
5571;BMP180;2808;51.240;6.794;2024-02-04T07:35:49;101753.00;;;10.30
5571;BMP180;2808;51.240;6.794;2024-02-04T07:38:26;101758.00;;;10.30
5571;BMP180;2808;51.240;6.794;2024-02-04T07:40:56;101773.00;;;10.40
5571;BMP180;2808;51.240;6.794;2024-02-04T07:43:25;101769.00;;;10.40
5571;BMP180;2808;51.240;6.794;2024-02-04T07:46:08;101774.00;;;10.40
5571;BMP180;2808;51.240;6.794;2024-02-04T07:48:35;101761.00;;;10.40
5571;BMP180;2808;51.240;6.794;2024-02-04T07:51:03;101758.00;;;10.40
5571;BMP180;2808;51.240;6.794;2024-02-04T07:53:41;101756.00;;;10.40
5571;BMP180;2808;51.240;6.794;2024-02-04T07:56:12;101750.00;;;10.40
5571;BMP180;2808;51.240;6.794;2024-02-04T07:58:40;101753.00;;;10.40
5571;BMP180;2808;51.240;6.794;2024-02-04T08:01:14;101746.00;;;10.40
5571;BMP180;2808;51.240;6.794;2024-02-04T08:03:44;101758.00;;;10.40
5571;BMP180;2808;51.240;6.794;2024-02-04T08:06:14;101753.00;;;10.40
5571;BMP180;2808;51.240;6.794;2024-02-04T08:08:43;101749.00;;;10.40
5571;BMP180;2808;51.240;6.794;2024-02-04T08:11:12;101745.00;;;10.40
5571;BMP180;2808;51.240;6.794;2024-02-04T08:13:43;101734.00;;;10.40
5571;BMP180;2808;51.240;6.794;2024-02-04T08:16:10;101730.00;;;10.40
5571;BMP180;2808;51.240;6.794;2024-02-04T08:18:41;101739.00;;;10.40
5571;BMP180;2808;51.240;6.794;2024-02-04T08:21:08;101744.00;;;10.40
5571;BMP180;2808;51.240;6.794;2024-02-04T08:23:38;101752.00;;;10.40
5571;BMP180;2808;51.240;6.794;2024-02-04T08:26:10;101764.00;;;10.40
5571;BMP180;2808;51.240;6.794;2024-02-04T08:28:40;101764.00;;;10.40
5571;BMP180;2808;51.240;6.794;2024-02-04T08:31:08;101763.00;;;10.50
5571;BMP180;2808;51.240;6.794;2024-02-04T08:33:35;101756.00;;;10.50
5571;BMP180;2808;51.240;6.794;2024-02-04T08:36:07;101754.00;;;10.50
5571;BMP180;2808;51.240;6.794;2024-02-04T08:38:49;101755.00;;;10.50
5571;BMP180;2808;51.240;6.794;2024-02-04T08:41:21;101758.00;;;10.50
5571;BMP180;2808;51.240;6.794;2024-02-04T08:43:49;101750.00;;;10.50
5571;BMP180;2808;51.240;6.794;2024-02-04T08:46:16;101741.00;;;10.50
5571;BMP180;2808;51.240;6.794;2024-02-04T08:48:44;101739.00;;;10.50
5571;BMP180;2808;51.240;6.794;2024-02-04T08:51:11;101749.00;;;10.50
5571;BMP180;2808;51.240;6.794;2024-02-04T08:53:39;101737.00;;;10.60
5571;BMP180;2808;51.240;6.794;2024-02-04T08:56:08;101739.00;;;10.60
5571;BMP180;2808;51.240;6.794;2024-02-04T08:58:39;101740.00;;;10.60
5571;BMP180;2808;51.240;6.794;2024-02-04T09:01:07;101744.00;;;10.60
5571;BMP180;2808;51.240;6.794;2024-02-04T09:03:34;101735.00;;;10.70
5571;BMP180;2808;51.240;6.794;2024-02-04T09:06:02;101744.00;;;10.70
5571;BMP180;2808;51.240;6.794;2024-02-04T09:08:30;101738.00;;;10.70
5571;BMP180;2808;51.240;6.794;2024-02-04T09:10:58;101735.00;;;10.80
5571;BMP180;2808;51.240;6.794;2024-02-04T09:13:26;101740.00;;;10.80
5571;BMP180;2808;51.240;6.794;2024-02-04T09:15:55;101748.00;;;10.80
5571;BMP180;2808;51.240;6.794;2024-02-04T09:18:25;101747.00;;;10.80
5571;BMP180;2808;51.240;6.794;2024-02-04T09:20:53;101756.00;;;10.90
5571;BMP180;2808;51.240;6.794;2024-02-04T09:23:20;101762.00;;;10.80
5571;BMP180;2808;51.240;6.794;2024-02-04T09:25:48;101757.00;;;10.80
5571;BMP180;2808;51.240;6.794;2024-02-04T09:28:15;101777.00;;;10.90
5571;BMP180;2808;51.240;6.794;2024-02-04T09:30:44;101765.00;;;10.90
5571;BMP180;2808;51.240;6.794;2024-02-04T09:33:14;101756.00;;;10.90
5571;BMP180;2808;51.240;6.794;2024-02-04T09:35:41;101762.00;;;10.90
5571;BMP180;2808;51.240;6.794;2024-02-04T09:38:10;101763.00;;;11.00
5571;BMP180;2808;51.240;6.794;2024-02-04T09:40:40;101767.00;;;10.90
5571;BMP180;2808;51.240;6.794;2024-02-04T09:43:10;101763.00;;;11.00
5571;BMP180;2808;51.240;6.794;2024-02-04T09:45:38;101770.00;;;11.00
5571;BMP180;2808;51.240;6.794;2024-02-04T09:48:08;101752.00;;;11.00
5571;BMP180;2808;51.240;6.794;2024-02-04T09:50:37;101755.00;;;10.90
5571;BMP180;2808;51.240;6.794;2024-02-04T09:53:06;101761.00;;;10.90
5571;BMP180;2808;51.240;6.794;2024-02-04T09:55:35;101761.00;;;10.90
5571;BMP180;2808;51.240;6.794;2024-02-04T09:58:04;101751.00;;;10.90
5571;BMP180;2808;51.240;6.794;2024-02-04T10:00:34;101750.00;;;10.90
5571;BMP180;2808;51.240;6.794;2024-02-04T10:03:02;101747.00;;;10.90
5571;BMP180;2808;51.240;6.794;2024-02-04T10:05:31;101743.00;;;10.90
5571;BMP180;2808;51.240;6.794;2024-02-04T10:08:00;101742.00;;;11.00
5571;BMP180;2808;51.240;6.794;2024-02-04T10:10:28;101746.00;;;11.00
5571;BMP180;2808;51.240;6.794;2024-02-04T10:12:56;101741.00;;;11.00
5571;BMP180;2808;51.240;6.794;2024-02-04T10:15:32;101751.00;;;11.10
5571;BMP180;2808;51.240;6.794;2024-02-04T10:18:03;101752.00;;;11.10
5571;BMP180;2808;51.240;6.794;2024-02-04T10:20:32;101752.00;;;11.10
5571;BMP180;2808;51.240;6.794;2024-02-04T10:23:03;101755.00;;;11.10
5571;BMP180;2808;51.240;6.794;2024-02-04T10:25:31;101748.00;;;11.10
5571;BMP180;2808;51.240;6.794;2024-02-04T10:27:59;101747.00;;;11.10
5571;BMP180;2808;51.240;6.794;2024-02-04T10:30:26;101757.00;;;11.20
5571;BMP180;2808;51.240;6.794;2024-02-04T10:32:55;101764.00;;;11.10
5571;BMP180;2808;51.240;6.794;2024-02-04T10:35:22;101759.00;;;11.20
5571;BMP180;2808;51.240;6.794;2024-02-04T10:37:50;101752.00;;;11.20
5571;BMP180;2808;51.240;6.794;2024-02-04T10:40:19;101750.00;;;11.20
5571;BMP180;2808;51.240;6.794;2024-02-04T10:42:47;101760.00;;;11.20
5571;BMP180;2808;51.240;6.794;2024-02-04T10:45:18;101754.00;;;11.10
5571;BMP180;2808;51.240;6.794;2024-02-04T10:47:55;101757.00;;;11.20
5571;BMP180;2808;51.240;6.794;2024-02-04T10:50:23;101748.00;;;11.10
5571;BMP180;2808;51.240;6.794;2024-02-04T10:52:52;101747.00;;;11.10
5571;BMP180;2808;51.240;6.794;2024-02-04T10:55:28;101740.00;;;11.20
5571;BMP180;2808;51.240;6.794;2024-02-04T10:58:03;101748.00;;;11.10
5571;BMP180;2808;51.240;6.794;2024-02-04T11:01:30;101738.00;;;11.10
5571;BMP180;2808;51.240;6.794;2024-02-04T11:03:45;101734.00;;;11.10
5571;BMP180;2808;51.240;6.794;2024-02-04T11:06:14;101738.00;;;11.10
5571;BMP180;2808;51.240;6.794;2024-02-04T11:08:42;101740.00;;;11.00
5571;BMP180;2808;51.240;6.794;2024-02-04T11:11:11;101748.00;;;11.00
5571;BMP180;2808;51.240;6.794;2024-02-04T12:38:49;101656.00;;;11.20
5571;BMP180;2808;51.240;6.794;2024-02-04T12:41:17;101664.00;;;11.20
5571;BMP180;2808;51.240;6.794;2024-02-04T12:43:51;101652.00;;;11.20
5571;BMP180;2808;51.240;6.794;2024-02-04T12:46:19;101624.00;;;11.10
5571;BMP180;2808;51.240;6.794;2024-02-04T12:48:51;101647.00;;;11.20
5571;BMP180;2808;51.240;6.794;2024-02-04T12:51:26;101646.00;;;11.20
5571;BMP180;2808;51.240;6.794;2024-02-04T12:54:05;101645.00;;;11.20
5571;BMP180;2808;51.240;6.794;2024-02-04T12:56:45;101637.00;;;11.20
5571;BMP180;2808;51.240;6.794;2024-02-04T12:59:24;101644.00;;;11.20
5571;BMP180;2808;51.240;6.794;2024-02-04T13:01:56;101631.00;;;11.20
5571;BMP180;2808;51.240;6.794;2024-02-04T13:04:24;101639.00;;;11.20
5571;BMP180;2808;51.240;6.794;2024-02-04T13:06:52;101646.00;;;11.20
5571;BMP180;2808;51.240;6.794;2024-02-04T13:09:21;101640.00;;;11.10
5571;BMP180;2808;51.240;6.794;2024-02-04T13:12:06;101640.00;;;11.10
5571;BMP180;2808;51.240;6.794;2024-02-04T13:14:41;101633.00;;;11.10
5571;BMP180;2808;51.240;6.794;2024-02-04T13:17:13;101630.00;;;11.10
5571;BMP180;2808;51.240;6.794;2024-02-04T13:19:41;101625.00;;;11.10
5571;BMP180;2808;51.240;6.794;2024-02-04T13:22:11;101625.00;;;11.10
5571;BMP180;2808;51.240;6.794;2024-02-04T13:24:45;101606.00;;;11.10
5571;BMP180;2808;51.240;6.794;2024-02-04T13:27:13;101609.00;;;11.00
5571;BMP180;2808;51.240;6.794;2024-02-04T13:29:42;101622.00;;;11.00
5571;BMP180;2808;51.240;6.794;2024-02-04T13:32:10;101625.00;;;11.00
5571;BMP180;2808;51.240;6.794;2024-02-04T13:34:37;101622.00;;;11.10
5571;BMP180;2808;51.240;6.794;2024-02-04T13:37:06;101623.00;;;11.00
5571;BMP180;2808;51.240;6.794;2024-02-04T13:39:41;101622.00;;;11.00
5571;BMP180;2808;51.240;6.794;2024-02-04T13:42:12;101622.00;;;11.00
5571;BMP180;2808;51.240;6.794;2024-02-04T13:44:40;101630.00;;;11.00
5571;BMP180;2808;51.240;6.794;2024-02-04T13:47:08;101635.00;;;11.00
5571;BMP180;2808;51.240;6.794;2024-02-04T13:49:35;101635.00;;;11.00
5571;BMP180;2808;51.240;6.794;2024-02-04T13:52:03;101636.00;;;11.10
5571;BMP180;2808;51.240;6.794;2024-02-04T13:54:34;101638.00;;;11.10
5571;BMP180;2808;51.240;6.794;2024-02-04T13:57:04;101632.00;;;11.10
5571;BMP180;2808;51.240;6.794;2024-02-04T13:59:35;101641.00;;;11.10
5571;BMP180;2808;51.240;6.794;2024-02-04T14:02:02;101645.00;;;11.10
5571;BMP180;2808;51.240;6.794;2024-02-04T14:04:31;101659.00;;;11.10
5571;BMP180;2808;51.240;6.794;2024-02-04T14:06:59;101657.00;;;11.10
5571;BMP180;2808;51.240;6.794;2024-02-04T14:09:27;101638.00;;;11.10
5571;BMP180;2808;51.240;6.794;2024-02-04T14:11:55;101624.00;;;11.10
5571;BMP180;2808;51.240;6.794;2024-02-04T14:14:31;101633.00;;;11.00
5571;BMP180;2808;51.240;6.794;2024-02-04T14:16:58;101624.00;;;11.00
5571;BMP180;2808;51.240;6.794;2024-02-04T14:19:25;101624.00;;;11.00
5571;BMP180;2808;51.240;6.794;2024-02-04T14:21:53;101619.00;;;11.00
5571;BMP180;2808;51.240;6.794;2024-02-04T14:24:21;101628.00;;;11.00
5571;BMP180;2808;51.240;6.794;2024-02-04T14:26:56;101617.00;;;11.00
5571;BMP180;2808;51.240;6.794;2024-02-04T14:29:24;101622.00;;;11.10
5571;BMP180;2808;51.240;6.794;2024-02-04T14:31:53;101625.00;;;11.10
5571;BMP180;2808;51.240;6.794;2024-02-04T14:34:22;101623.00;;;11.10
5571;BMP180;2808;51.240;6.794;2024-02-04T14:36:49;101625.00;;;11.10
5571;BMP180;2808;51.240;6.794;2024-02-04T14:39:16;101627.00;;;11.10
5571;BMP180;2808;51.240;6.794;2024-02-04T14:41:44;101607.00;;;11.10
5571;BMP180;2808;51.240;6.794;2024-02-04T14:44:12;101620.00;;;11.10
5571;BMP180;2808;51.240;6.794;2024-02-04T14:46:39;101625.00;;;11.10
5571;BMP180;2808;51.240;6.794;2024-02-04T14:49:09;101627.00;;;11.20
5571;BMP180;2808;51.240;6.794;2024-02-04T14:51:40;101628.00;;;11.20
5571;BMP180;2808;51.240;6.794;2024-02-04T14:54:07;101621.00;;;11.20
5571;BMP180;2808;51.240;6.794;2024-02-04T14:56:40;101641.00;;;11.20
5571;BMP180;2808;51.240;6.794;2024-02-04T14:59:09;101639.00;;;11.10
5571;BMP180;2808;51.240;6.794;2024-02-04T15:01:45;101636.00;;;11.20
5571;BMP180;2808;51.240;6.794;2024-02-04T15:04:15;101627.00;;;11.20
5571;BMP180;2808;51.240;6.794;2024-02-04T15:06:44;101605.00;;;11.20
5571;BMP180;2808;51.240;6.794;2024-02-04T15:09:14;101621.00;;;11.20
5571;BMP180;2808;51.240;6.794;2024-02-04T15:11:47;101612.00;;;11.20
5571;BMP180;2808;51.240;6.794;2024-02-04T15:14:15;101609.00;;;11.10
5571;BMP180;2808;51.240;6.794;2024-02-04T15:16:43;101613.00;;;11.10
5571;BMP180;2808;51.240;6.794;2024-02-04T15:19:11;101609.00;;;11.10
5571;BMP180;2808;51.240;6.794;2024-02-04T15:21:40;101612.00;;;11.10
5571;BMP180;2808;51.240;6.794;2024-02-04T15:24:09;101619.00;;;11.10
5571;BMP180;2808;51.240;6.794;2024-02-04T15:26:43;101620.00;;;11.10
5571;BMP180;2808;51.240;6.794;2024-02-04T15:29:17;101618.00;;;11.10
5571;BMP180;2808;51.240;6.794;2024-02-04T15:31:48;101616.00;;;11.10
5571;BMP180;2808;51.240;6.794;2024-02-04T15:34:16;101624.00;;;11.10
5571;BMP180;2808;51.240;6.794;2024-02-04T15:36:48;101620.00;;;11.10
5571;BMP180;2808;51.240;6.794;2024-02-04T15:39:19;101613.00;;;11.10
5571;BMP180;2808;51.240;6.794;2024-02-04T15:41:47;101614.00;;;11.10
5571;BMP180;2808;51.240;6.794;2024-02-04T15:44:17;101612.00;;;11.10
5571;BMP180;2808;51.240;6.794;2024-02-04T15:46:48;101607.00;;;11.10
5571;BMP180;2808;51.240;6.794;2024-02-04T15:49:20;101603.00;;;11.10
5571;BMP180;2808;51.240;6.794;2024-02-04T15:51:51;101600.00;;;11.10
5571;BMP180;2808;51.240;6.794;2024-02-04T15:54:20;101590.00;;;11.10
5571;BMP180;2808;51.240;6.794;2024-02-04T15:56:54;101577.00;;;11.10
5571;BMP180;2808;51.240;6.794;2024-02-04T15:59:30;101580.00;;;11.00
5571;BMP180;2808;51.240;6.794;2024-02-04T16:02:02;101589.00;;;11.10
5571;BMP180;2808;51.240;6.794;2024-02-04T16:04:30;101583.00;;;11.00
5571;BMP180;2808;51.240;6.794;2024-02-04T16:07:00;101589.00;;;11.00
5571;BMP180;2808;51.240;6.794;2024-02-04T16:09:32;101592.00;;;11.00
5571;BMP180;2808;51.240;6.794;2024-02-04T16:12:06;101585.00;;;11.00
5571;BMP180;2808;51.240;6.794;2024-02-04T16:14:36;101585.00;;;11.00